sensor_id;sensor_type;location;lat;lon;timestamp;pressure;altitude;pressure_sealevel;temperature;humidity
40384;BME280;26097;42.366;23.818;2023-05-09T00:01:17;94354.41;;;10.48;100.00
40384;BME280;26097;42.366;23.818;2023-05-09T00:04:18;94345.63;;;10.49;100.00
40384;BME280;26097;42.366;23.818;2023-05-09T00:07:18;94343.25;;;10.46;100.00
40384;BME280;26097;42.366;23.818;2023-05-09T00:10:19;94346.81;;;10.45;100.00
40384;BME280;26097;42.366;23.818;2023-05-09T00:13:19;94357.41;;;10.41;100.00
40384;BME280;26097;42.366;23.818;2023-05-09T00:16:20;94350.53;;;10.40;100.00
40384;BME280;26097;42.366;23.818;2023-05-09T00:19:23;94353.25;;;10.39;100.00
40384;BME280;26097;42.366;23.818;2023-05-09T00:22:23;94348.84;;;10.39;100.00
40384;BME280;26097;42.366;23.818;2023-05-09T00:25:23;94353.34;;;10.37;100.00
40384;BME280;26097;42.366;23.818;2023-05-09T00:28:24;94348.03;;;10.39;100.00
40384;BME280;26097;42.366;23.818;2023-05-09T00:31:24;94341.97;;;10.38;100.00
40384;BME280;26097;42.366;23.818;2023-05-09T00:34:25;94343.88;;;10.36;100.00
40384;BME280;26097;42.366;23.818;2023-05-09T00:37:25;94347.41;;;10.35;100.00
40384;BME280;26097;42.366;23.818;2023-05-09T00:40:25;94348.97;;;10.38;100.00
40384;BME280;26097;42.366;23.818;2023-05-09T00:43:26;94349.53;;;10.30;100.00
40384;BME280;26097;42.366;23.818;2023-05-09T00:46:26;94351.41;;;10.28;100.00
40384;BME280;26097;42.366;23.818;2023-05-09T00:49:27;94359.84;;;10.19;100.00
40384;BME280;26097;42.366;23.818;2023-05-09T00:52:28;94357.78;;;10.11;100.00
40384;BME280;26097;42.366;23.818;2023-05-09T00:55:29;94357.91;;;10.09;100.00
40384;BME280;26097;42.366;23.818;2023-05-09T00:58:30;94348.44;;;10.08;100.00
40384;BME280;26097;42.366;23.818;2023-05-09T01:01:30;94355.53;;;10.06;100.00
40384;BME280;26097;42.366;23.818;2023-05-09T01:04:31;94351.13;;;10.07;100.00
40384;BME280;26097;42.366;23.818;2023-05-09T01:10:59;94356.47;;;10.05;100.00
40384;BME280;26097;42.366;23.818;2023-05-09T01:20:45;94364.91;;;9.96;100.00
40384;BME280;26097;42.366;23.818;2023-05-09T01:30:39;94358.53;;;9.87;100.00
40384;BME280;26097;42.366;23.818;2023-05-09T01:33:43;94362.22;;;9.84;100.00
40384;BME280;26097;42.366;23.818;2023-05-09T01:36:47;94357.94;;;9.83;100.00
40384;BME280;26097;42.366;23.818;2023-05-09T01:39:52;94362.31;;;9.83;100.00
40384;BME280;26097;42.366;23.818;2023-05-09T01:43:04;94363.25;;;9.82;100.00
40384;BME280;26097;42.366;23.818;2023-05-09T01:46:07;94362.63;;;9.78;100.00
40384;BME280;26097;42.366;23.818;2023-05-09T01:49:08;94364.50;;;9.76;100.00
40384;BME280;26097;42.366;23.818;2023-05-09T01:52:13;94370.84;;;9.72;100.00
40384;BME280;26097;42.366;23.818;2023-05-09T01:55:16;94367.63;;;9.68;100.00
40384;BME280;26097;42.366;23.818;2023-05-09T01:58:17;94376.28;;;9.69;100.00
40384;BME280;26097;42.366;23.818;2023-05-09T02:01:18;94373.53;;;9.70;100.00
40384;BME280;26097;42.366;23.818;2023-05-09T02:04:19;94368.69;;;9.66;100.00
40384;BME280;26097;42.366;23.818;2023-05-09T02:07:22;94370.00;;;9.58;100.00
40384;BME280;26097;42.366;23.818;2023-05-09T02:10:23;94372.09;;;9.53;100.00
40384;BME280;26097;42.366;23.818;2023-05-09T02:13:25;94373.97;;;9.51;100.00
40384;BME280;26097;42.366;23.818;2023-05-09T02:16:26;94382.06;;;9.47;100.00
40384;BME280;26097;42.366;23.818;2023-05-09T02:19:27;94389.16;;;9.45;100.00
40384;BME280;26097;42.366;23.818;2023-05-09T02:22:27;94380.91;;;9.38;100.00
40384;BME280;26097;42.366;23.818;2023-05-09T02:25:28;94382.72;;;9.37;100.00
40384;BME280;26097;42.366;23.818;2023-05-09T02:28:29;94381.84;;;9.37;100.00
40384;BME280;26097;42.366;23.818;2023-05-09T02:31:30;94385.59;;;9.33;100.00
40384;BME280;26097;42.366;23.818;2023-05-09T02:34:32;94385.81;;;9.29;100.00
40384;BME280;26097;42.366;23.818;2023-05-09T02:37:33;94385.09;;;9.27;100.00
40384;BME280;26097;42.366;23.818;2023-05-09T02:40:34;94387.78;;;9.26;100.00
40384;BME280;26097;42.366;23.818;2023-05-09T02:43:35;94384.34;;;9.25;100.00
40384;BME280;26097;42.366;23.818;2023-05-09T02:46:35;94384.44;;;9.24;100.00
40384;BME280;26097;42.366;23.818;2023-05-09T02:49:36;94390.50;;;9.24;100.00
40384;BME280;26097;42.366;23.818;2023-05-09T02:52:36;94392.03;;;9.27;100.00
40384;BME280;26097;42.366;23.818;2023-05-09T02:55:37;94391.22;;;9.26;100.00
40384;BME280;26097;42.366;23.818;2023-05-09T02:58:37;94392.56;;;9.32;100.00
40384;BME280;26097;42.366;23.818;2023-05-09T03:01:38;94380.19;;;9.36;100.00
40384;BME280;26097;42.366;23.818;2023-05-09T03:04:38;94394.06;;;9.36;100.00
40384;BME280;26097;42.366;23.818;2023-05-09T03:07:39;94393.19;;;9.36;100.00
40384;BME280;26097;42.366;23.818;2023-05-09T03:10:39;94389.13;;;9.32;100.00
40384;BME280;26097;42.366;23.818;2023-05-09T03:13:39;94393.94;;;9.38;100.00
40384;BME280;26097;42.366;23.818;2023-05-09T03:16:40;94397.69;;;9.34;100.00
40384;BME280;26097;42.366;23.818;2023-05-09T03:19:40;94401.41;;;9.29;100.00
40384;BME280;26097;42.366;23.818;2023-05-09T03:22:41;94400.69;;;9.27;100.00
40384;BME280;26097;42.366;23.818;2023-05-09T03:25:41;94406.81;;;9.26;100.00
40384;BME280;26097;42.366;23.818;2023-05-09T03:28:41;94411.09;;;9.27;100.00
40384;BME280;26097;42.366;23.818;2023-05-09T03:31:42;94407.66;;;9.27;100.00
40384;BME280;26097;42.366;23.818;2023-05-09T03:34:42;94415.44;;;9.27;100.00
40384;BME280;26097;42.366;23.818;2023-05-09T03:37:43;94422.03;;;9.33;100.00
40384;BME280;26097;42.366;23.818;2023-05-09T03:40:43;94425.16;;;9.38;100.00
40384;BME280;26097;42.366;23.818;2023-05-09T03:43:44;94432.66;;;9.42;100.00
40384;BME280;26097;42.366;23.818;2023-05-09T03:46:44;94432.03;;;9.39;100.00
40384;BME280;26097;42.366;23.818;2023-05-09T03:49:45;94434.09;;;9.34;100.00
40384;BME280;26097;42.366;23.818;2023-05-09T03:52:45;94432.63;;;9.29;100.00
40384;BME280;26097;42.366;23.818;2023-05-09T03:55:46;94428.56;;;9.25;100.00
40384;BME280;26097;42.366;23.818;2023-05-09T03:58:47;94434.59;;;9.26;100.00
40384;BME280;26097;42.366;23.818;2023-05-09T04:01:47;94438.03;;;9.26;100.00
40384;BME280;26097;42.366;23.818;2023-05-09T04:04:48;94429.50;;;9.24;100.00
40384;BME280;26097;42.366;23.818;2023-05-09T04:07:49;94433.66;;;9.27;100.00
40384;BME280;26097;42.366;23.818;2023-05-09T04:10:49;94438.22;;;9.23;100.00
40384;BME280;26097;42.366;23.818;2023-05-09T04:13:51;94432.94;;;9.25;100.00
40384;BME280;26097;42.366;23.818;2023-05-09T04:16:51;94428.75;;;9.22;100.00
40384;BME280;26097;42.366;23.818;2023-05-09T04:19:52;94431.88;;;9.14;100.00
40384;BME280;26097;42.366;23.818;2023-05-09T04:22:52;94438.63;;;9.17;100.00
40384;BME280;26097;42.366;23.818;2023-05-09T04:25:52;94438.53;;;9.19;100.00
40384;BME280;26097;42.366;23.818;2023-05-09T04:28:53;94428.00;;;9.20;100.00
40384;BME280;26097;42.366;23.818;2023-05-09T04:31:53;94439.06;;;9.24;100.00
40384;BME280;26097;42.366;23.818;2023-05-09T04:34:54;94440.00;;;9.23;100.00
40384;BME280;26097;42.366;23.818;2023-05-09T04:37:54;94439.91;;;9.24;100.00
40384;BME280;26097;42.366;23.818;2023-05-09T04:40:55;94447.72;;;9.24;100.00
40384;BME280;26097;42.366;23.818;2023-05-09T04:43:55;94443.03;;;9.29;100.00
40384;BME280;26097;42.366;23.818;2023-05-09T04:46:56;94442.41;;;9.26;100.00
40384;BME280;26097;42.366;23.818;2023-05-09T04:49:57;94453.25;;;9.33;100.00
40384;BME280;26097;42.366;23.818;2023-05-09T04:52:57;94452.09;;;9.37;100.00
40384;BME280;26097;42.366;23.818;2023-05-09T04:55:57;94454.50;;;9.40;100.00
40384;BME280;26097;42.366;23.818;2023-05-09T04:58:58;94448.56;;;9.38;100.00
40384;BME280;26097;42.366;23.818;2023-05-09T05:01:58;94449.28;;;9.40;100.00
40384;BME280;26097;42.366;23.818;2023-05-09T05:04:59;94450.03;;;9.42;100.00
40384;BME280;26097;42.366;23.818;2023-05-09T05:07:59;94451.59;;;9.45;100.00
40384;BME280;26097;42.366;23.818;2023-05-09T05:10:59;94452.25;;;9.48;100.00
40384;BME280;26097;42.366;23.818;2023-05-09T05:14:00;94451.09;;;9.52;100.00
40384;BME280;26097;42.366;23.818;2023-05-09T05:17:00;94452.75;;;9.53;100.00
40384;BME280;26097;42.366;23.818;2023-05-09T05:20:00;94456.22;;;9.54;100.00
40384;BME280;26097;42.366;23.818;2023-05-09T05:23:02;94458.50;;;9.58;100.00
40384;BME280;26097;42.366;23.818;2023-05-09T05:26:02;94457.47;;;9.61;100.00
40384;BME280;26097;42.366;23.818;2023-05-09T05:29:03;94456.63;;;9.61;100.00
40384;BME280;26097;42.366;23.818;2023-05-09T05:32:03;94448.09;;;9.58;100.00
40384;BME280;26097;42.366;23.818;2023-05-09T05:35:04;94454.00;;;9.61;100.00
40384;BME280;26097;42.366;23.818;2023-05-09T05:38:04;94453.72;;;9.65;100.00
40384;BME280;26097;42.366;23.818;2023-05-09T05:41:05;94452.13;;;9.63;100.00
40384;BME280;26097;42.366;23.818;2023-05-09T05:44:05;94457.69;;;9.71;100.00
40384;BME280;26097;42.366;23.818;2023-05-09T05:47:05;94462.91;;;9.71;100.00
40384;BME280;26097;42.366;23.818;2023-05-09T05:50:06;94460.38;;;9.69;100.00
40384;BME280;26097;42.366;23.818;2023-05-09T05:53:09;94464.56;;;9.72;100.00
40384;BME280;26097;42.366;23.818;2023-05-09T05:56:09;94463.63;;;9.73;100.00
40384;BME280;26097;42.366;23.818;2023-05-09T05:59:10;94454.47;;;9.80;100.00
40384;BME280;26097;42.366;23.818;2023-05-09T06:02:10;94459.56;;;9.95;100.00
40384;BME280;26097;42.366;23.818;2023-05-09T06:05:11;94458.97;;;10.04;100.00
40384;BME280;26097;42.366;23.818;2023-05-09T06:08:11;94454.78;;;10.14;100.00
40384;BME280;26097;42.366;23.818;2023-05-09T06:11:11;94451.16;;;10.17;100.00
40384;BME280;26097;42.366;23.818;2023-05-09T06:14:12;94462.81;;;10.11;100.00
40384;BME280;26097;42.366;23.818;2023-05-09T06:17:12;94463.66;;;10.25;100.00
40384;BME280;26097;42.366;23.818;2023-05-09T06:20:13;94459.75;;;10.31;100.00
40384;BME280;26097;42.366;23.818;2023-05-09T06:23:13;94462.59;;;10.40;100.00
40384;BME280;26097;42.366;23.818;2023-05-09T06:26:13;94465.03;;;10.43;100.00
40384;BME280;26097;42.366;23.818;2023-05-09T06:29:14;94461.66;;;10.41;100.00
40384;BME280;26097;42.366;23.818;2023-05-09T06:32:15;94469.06;;;10.35;100.00
40384;BME280;26097;42.366;23.818;2023-05-09T06:35:17;94474.38;;;10.33;100.00
40384;BME280;26097;42.366;23.818;2023-05-09T06:38:18;94468.13;;;10.23;100.00
40384;BME280;26097;42.366;23.818;2023-05-09T06:41:18;94472.91;;;10.29;100.00
40384;BME280;26097;42.366;23.818;2023-05-09T06:44:18;94473.13;;;10.52;100.00
40384;BME280;26097;42.366;23.818;2023-05-09T06:47:19;94465.19;;;10.66;100.00
40384;BME280;26097;42.366;23.818;2023-05-09T06:50:19;94470.16;;;10.69;100.00
40384;BME280;26097;42.366;23.818;2023-05-09T06:53:20;94465.69;;;10.71;100.00
40384;BME280;26097;42.366;23.818;2023-05-09T06:56:20;94472.44;;;10.87;100.00
40384;BME280;26097;42.366;23.818;2023-05-09T06:59:21;94469.09;;;10.85;100.00
40384;BME280;26097;42.366;23.818;2023-05-09T07:02:22;94472.44;;;10.87;100.00
40384;BME280;26097;42.366;23.818;2023-05-09T07:05:22;94469.06;;;10.98;100.00
40384;BME280;26097;42.366;23.818;2023-05-09T07:08:23;94468.06;;;11.12;100.00
40384;BME280;26097;42.366;23.818;2023-05-09T07:11:23;94467.72;;;11.17;100.00
40384;BME280;26097;42.366;23.818;2023-05-09T07:14:24;94452.31;;;11.13;100.00
40384;BME280;26097;42.366;23.818;2023-05-09T07:17:24;94456.03;;;11.22;100.00
40384;BME280;26097;42.366;23.818;2023-05-09T07:20:25;94462.84;;;11.12;100.00
40384;BME280;26097;42.366;23.818;2023-05-09T07:23:25;94463.88;;;11.34;100.00
40384;BME280;26097;42.366;23.818;2023-05-09T07:26:26;94461.75;;;11.39;100.00
40384;BME280;26097;42.366;23.818;2023-05-09T07:29:26;94458.00;;;11.43;100.00
40384;BME280;26097;42.366;23.818;2023-05-09T07:32:26;94468.59;;;11.53;100.00
40384;BME280;26097;42.366;23.818;2023-05-09T07:35:27;94476.66;;;11.25;100.00
40384;BME280;26097;42.366;23.818;2023-05-09T07:38:28;94469.00;;;11.11;100.00
40384;BME280;26097;42.366;23.818;2023-05-09T07:41:28;94470.81;;;10.97;100.00
40384;BME280;26097;42.366;23.818;2023-05-09T07:44:29;94473.38;;;10.86;100.00
40384;BME280;26097;42.366;23.818;2023-05-09T07:47:29;94485.41;;;10.63;100.00
40384;BME280;26097;42.366;23.818;2023-05-09T07:50:29;94486.16;;;10.52;100.00
40384;BME280;26097;42.366;23.818;2023-05-09T07:53:30;94474.06;;;10.51;100.00
40384;BME280;26097;42.366;23.818;2023-05-09T07:56:30;94469.78;;;10.50;100.00
40384;BME280;26097;42.366;23.818;2023-05-09T07:59:31;94473.13;;;10.52;100.00
40384;BME280;26097;42.366;23.818;2023-05-09T08:02:31;94469.63;;;10.77;100.00
40384;BME280;26097;42.366;23.818;2023-05-09T08:05:32;94469.81;;;10.87;100.00
40384;BME280;26097;42.366;23.818;2023-05-09T08:08:32;94468.19;;;10.97;100.00
40384;BME280;26097;42.366;23.818;2023-05-09T08:11:33;94473.28;;;10.75;100.00
40384;BME280;26097;42.366;23.818;2023-05-09T08:14:34;94476.97;;;10.96;100.00
40384;BME280;26097;42.366;23.818;2023-05-09T08:17:34;94476.09;;;11.09;100.00
40384;BME280;26097;42.366;23.818;2023-05-09T08:20:35;94472.09;;;11.16;100.00
40384;BME280;26097;42.366;23.818;2023-05-09T08:23:35;94466.63;;;11.32;100.00
40384;BME280;26097;42.366;23.818;2023-05-09T08:26:35;94467.91;;;11.26;100.00
40384;BME280;26097;42.366;23.818;2023-05-09T08:29:36;94469.59;;;11.39;100.00
40384;BME280;26097;42.366;23.818;2023-05-09T08:32:36;94474.53;;;11.55;100.00
40384;BME280;26097;42.366;23.818;2023-05-09T08:35:37;94468.69;;;11.87;100.00
40384;BME280;26097;42.366;23.818;2023-05-09T08:38:37;94474.13;;;12.31;100.00
40384;BME280;26097;42.366;23.818;2023-05-09T08:41:40;94472.72;;;12.50;100.00
40384;BME280;26097;42.366;23.818;2023-05-09T08:44:41;94465.34;;;12.55;100.00
40384;BME280;26097;42.366;23.818;2023-05-09T08:47:42;94467.69;;;12.12;100.00
40384;BME280;26097;42.366;23.818;2023-05-09T08:50:43;94461.19;;;12.30;100.00
40384;BME280;26097;42.366;23.818;2023-05-09T08:53:44;94465.34;;;12.32;100.00
40384;BME280;26097;42.366;23.818;2023-05-09T08:56:45;94463.22;;;12.26;100.00
40384;BME280;26097;42.366;23.818;2023-05-09T08:59:46;94461.06;;;12.20;100.00
40384;BME280;26097;42.366;23.818;2023-05-09T09:02:48;94462.38;;;12.14;100.00
40384;BME280;26097;42.366;23.818;2023-05-09T09:05:49;94464.63;;;12.19;100.00
40384;BME280;26097;42.366;23.818;2023-05-09T09:08:53;94474.34;;;12.05;100.00
40384;BME280;26097;42.366;23.818;2023-05-09T09:11:54;94475.94;;;11.83;100.00
40384;BME280;26097;42.366;23.818;2023-05-09T09:14:55;94473.50;;;11.69;100.00
40384;BME280;26097;42.366;23.818;2023-05-09T09:18:05;94479.16;;;11.51;100.00
40384;BME280;26097;42.366;23.818;2023-05-09T09:21:08;94471.00;;;11.32;100.00
40384;BME280;26097;42.366;23.818;2023-05-09T09:24:11;94471.22;;;11.28;100.00
40384;BME280;26097;42.366;23.818;2023-05-09T09:27:12;94475.59;;;11.04;100.00
40384;BME280;26097;42.366;23.818;2023-05-09T09:30:13;94473.22;;;11.00;100.00
40384;BME280;26097;42.366;23.818;2023-05-09T09:33:21;94471.78;;;11.45;100.00
40384;BME280;26097;42.366;23.818;2023-05-09T09:36:31;94469.16;;;11.45;100.00
40384;BME280;26097;42.366;23.818;2023-05-09T09:39:32;94471.13;;;11.66;100.00
40384;BME280;26097;42.366;23.818;2023-05-09T09:42:52;94468.81;;;11.85;100.00
40384;BME280;26097;42.366;23.818;2023-05-09T09:45:53;94469.38;;;12.02;100.00
40384;BME280;26097;42.366;23.818;2023-05-09T09:48:55;94472.03;;;12.00;100.00
40384;BME280;26097;42.366;23.818;2023-05-09T09:51:57;94474.34;;;12.05;100.00
40384;BME280;26097;42.366;23.818;2023-05-09T09:54:58;94474.94;;;11.73;100.00
40384;BME280;26097;42.366;23.818;2023-05-09T09:57:59;94471.13;;;11.66;100.00
40384;BME280;26097;42.366;23.818;2023-05-09T10:01:10;94466.56;;;11.56;100.00
40384;BME280;26097;42.366;23.818;2023-05-09T10:04:14;94472.41;;;11.24;100.00
40384;BME280;26097;42.366;23.818;2023-05-09T10:07:18;94474.22;;;11.11;100.00
40384;BME280;26097;42.366;23.818;2023-05-09T10:10:21;94480.28;;;11.11;100.00
40384;BME280;26097;42.366;23.818;2023-05-09T10:13:22;94478.84;;;10.94;100.00
40384;BME280;26097;42.366;23.818;2023-05-09T10:16:22;94472.66;;;10.84;100.00
40384;BME280;26097;42.366;23.818;2023-05-09T10:19:25;94474.22;;;10.74;100.00
40384;BME280;26097;42.366;23.818;2023-05-09T10:22:27;94486.38;;;10.49;100.00
40384;BME280;26097;42.366;23.818;2023-05-09T10:25:38;94484.78;;;10.33;100.00
40384;BME280;26097;42.366;23.818;2023-05-09T10:28:40;94474.38;;;10.20;100.00
40384;BME280;26097;42.366;23.818;2023-05-09T10:31:44;94470.63;;;10.24;100.00
40384;BME280;26097;42.366;23.818;2023-05-09T10:34:48;94474.78;;;10.40;100.00
40384;BME280;26097;42.366;23.818;2023-05-09T10:37:51;94478.88;;;10.44;100.00
40384;BME280;26097;42.366;23.818;2023-05-09T10:40:54;94475.19;;;10.21;100.00
40384;BME280;26097;42.366;23.818;2023-05-09T10:43:57;94483.44;;;10.27;100.00
40384;BME280;26097;42.366;23.818;2023-05-09T10:46:58;94481.88;;;10.25;100.00
40384;BME280;26097;42.366;23.818;2023-05-09T10:49:59;94481.75;;;10.39;100.00
40384;BME280;26097;42.366;23.818;2023-05-09T10:56:03;94479.06;;;10.54;100.00
40384;BME280;26097;42.366;23.818;2023-05-09T10:59:03;94478.31;;;10.65;100.00
40384;BME280;26097;42.366;23.818;2023-05-09T11:02:11;94479.78;;;10.56;100.00
40384;BME280;26097;42.366;23.818;2023-05-09T11:08:21;94480.19;;;10.63;100.00
40384;BME280;26097;42.366;23.818;2023-05-09T11:11:22;94472.91;;;10.55;100.00
40384;BME280;26097;42.366;23.818;2023-05-09T11:14:32;94475.63;;;10.40;100.00
40384;BME280;26097;42.366;23.818;2023-05-09T11:17:40;94477.09;;;10.45;100.00
40384;BME280;26097;42.366;23.818;2023-05-09T11:20:41;94473.78;;;10.42;100.00
40384;BME280;26097;42.366;23.818;2023-05-09T11:23:42;94472.50;;;10.61;100.00
40384;BME280;26097;42.366;23.818;2023-05-09T11:26:45;94469.84;;;10.74;100.00
40384;BME280;26097;42.366;23.818;2023-05-09T11:29:51;94475.03;;;10.87;100.00
40384;BME280;26097;42.366;23.818;2023-05-09T11:32:53;94475.13;;;10.85;100.00
40384;BME280;26097;42.366;23.818;2023-05-09T11:39:23;94474.09;;;10.88;100.00
40384;BME280;26097;42.366;23.818;2023-05-09T11:42:26;94481.31;;;10.71;100.00
40384;BME280;26097;42.366;23.818;2023-05-09T11:45:29;94475.47;;;10.81;100.00
40384;BME280;26097;42.366;23.818;2023-05-09T11:48:36;94477.63;;;10.87;100.00
40384;BME280;26097;42.366;23.818;2023-05-09T11:51:38;94479.81;;;10.93;100.00
40384;BME280;26097;42.366;23.818;2023-05-09T11:54:39;94477.59;;;11.00;100.00
40384;BME280;26097;42.366;23.818;2023-05-09T11:57:50;94476.56;;;11.03;100.00
40384;BME280;26097;42.366;23.818;2023-05-09T12:00:50;94470.88;;;11.09;100.00
40384;BME280;26097;42.366;23.818;2023-05-09T12:03:51;94470.09;;;10.95;100.00
40384;BME280;26097;42.366;23.818;2023-05-09T12:06:51;94468.31;;;10.96;100.00
40384;BME280;26097;42.366;23.818;2023-05-09T12:09:52;94472.19;;;10.90;100.00
40384;BME280;26097;42.366;23.818;2023-05-09T12:12:52;94475.16;;;10.73;100.00
40384;BME280;26097;42.366;23.818;2023-05-09T12:16:02;94466.81;;;10.80;100.00
40384;BME280;26097;42.366;23.818;2023-05-09T12:19:02;94467.44;;;10.84;100.00
40384;BME280;26097;42.366;23.818;2023-05-09T12:22:04;94463.16;;;10.83;100.00
40384;BME280;26097;42.366;23.818;2023-05-09T12:25:07;94462.81;;;10.88;100.00
40384;BME280;26097;42.366;23.818;2023-05-09T12:28:09;94448.00;;;10.88;100.00
40384;BME280;26097;42.366;23.818;2023-05-09T12:31:10;94446.91;;;11.04;100.00
40384;BME280;26097;42.366;23.818;2023-05-09T12:34:11;94442.09;;;11.10;100.00
40384;BME280;26097;42.366;23.818;2023-05-09T12:37:17;94440.19;;;11.12;100.00
40384;BME280;26097;42.366;23.818;2023-05-09T12:40:18;94441.56;;;11.29;100.00
40384;BME280;26097;42.366;23.818;2023-05-09T12:43:18;94439.41;;;11.23;100.00
40384;BME280;26097;42.366;23.818;2023-05-09T12:46:20;94448.53;;;11.18;100.00
40384;BME280;26097;42.366;23.818;2023-05-09T12:49:21;94447.41;;;11.09;100.00
40384;BME280;26097;42.366;23.818;2023-05-09T12:52:22;94445.25;;;11.03;100.00
40384;BME280;26097;42.366;23.818;2023-05-09T12:55:22;94444.47;;;10.89;100.00
40384;BME280;26097;42.366;23.818;2023-05-09T12:58:28;94441.78;;;10.78;100.00
40384;BME280;26097;42.366;23.818;2023-05-09T13:01:28;94439.81;;;10.68;100.00
40384;BME280;26097;42.366;23.818;2023-05-09T13:04:29;94447.56;;;10.57;100.00
40384;BME280;26097;42.366;23.818;2023-05-09T13:07:38;94442.75;;;10.64;100.00
40384;BME280;26097;42.366;23.818;2023-05-09T13:10:38;94433.41;;;10.61;100.00
40384;BME280;26097;42.366;23.818;2023-05-09T13:13:39;94436.38;;;10.68;100.00
40384;BME280;26097;42.366;23.818;2023-05-09T13:16:40;94429.84;;;10.62;100.00
40384;BME280;26097;42.366;23.818;2023-05-09T13:19:41;94431.06;;;10.69;100.00
40384;BME280;26097;42.366;23.818;2023-05-09T13:22:42;94432.53;;;10.61;100.00
40384;BME280;26097;42.366;23.818;2023-05-09T13:25:45;94426.66;;;10.46;100.00
40384;BME280;26097;42.366;23.818;2023-05-09T13:28:46;94432.19;;;10.41;100.00
40384;BME280;26097;42.366;23.818;2023-05-09T13:31:47;94431.00;;;10.45;100.00
40384;BME280;26097;42.366;23.818;2023-05-09T13:34:47;94429.31;;;10.57;100.00
40384;BME280;26097;42.366;23.818;2023-05-09T13:37:48;94429.97;;;10.48;100.00
40384;BME280;26097;42.366;23.818;2023-05-09T13:40:50;94432.91;;;10.43;100.00
40384;BME280;26097;42.366;23.818;2023-05-09T13:43:50;94430.19;;;10.45;100.00
40384;BME280;26097;42.366;23.818;2023-05-09T13:46:51;94432.59;;;10.48;100.00
40384;BME280;26097;42.366;23.818;2023-05-09T13:49:51;94437.16;;;10.31;100.00
40384;BME280;26097;42.366;23.818;2023-05-09T13:52:52;94432.47;;;10.36;100.00
40384;BME280;26097;42.366;23.818;2023-05-09T13:55:52;94430.50;;;10.27;100.00
40384;BME280;26097;42.366;23.818;2023-05-09T13:58:52;94429.13;;;10.34;100.00
40384;BME280;26097;42.366;23.818;2023-05-09T14:01:53;94431.66;;;10.23;100.00
40384;BME280;26097;42.366;23.818;2023-05-09T14:04:56;94429.34;;;10.31;100.00
40384;BME280;26097;42.366;23.818;2023-05-09T14:07:58;94429.13;;;10.47;100.00
40384;BME280;26097;42.366;23.818;2023-05-09T14:10:58;94427.88;;;10.53;100.00
40384;BME280;26097;42.366;23.818;2023-05-09T14:13:58;94431.19;;;10.55;100.00
40384;BME280;26097;42.366;23.818;2023-05-09T14:16:59;94425.91;;;10.56;100.00
40384;BME280;26097;42.366;23.818;2023-05-09T14:20:00;94428.19;;;10.61;100.00
40384;BME280;26097;42.366;23.818;2023-05-09T14:23:01;94430.19;;;10.45;100.00
40384;BME280;26097;42.366;23.818;2023-05-09T14:26:01;94428.53;;;10.43;100.00
40384;BME280;26097;42.366;23.818;2023-05-09T14:29:05;94428.09;;;10.37;100.00
40384;BME280;26097;42.366;23.818;2023-05-09T14:32:06;94429.78;;;10.25;100.00
40384;BME280;26097;42.366;23.818;2023-05-09T14:35:07;94420.19;;;10.12;100.00
40384;BME280;26097;42.366;23.818;2023-05-09T14:38:07;94424.03;;;10.20;100.00
40384;BME280;26097;42.366;23.818;2023-05-09T14:41:08;94429.78;;;10.25;100.00
40384;BME280;26097;42.366;23.818;2023-05-09T14:44:08;94424.19;;;10.05;100.00
40384;BME280;26097;42.366;23.818;2023-05-09T14:47:09;94423.44;;;10.03;100.00
40384;BME280;26097;42.366;23.818;2023-05-09T14:50:09;94422.16;;;10.09;100.00
40384;BME280;26097;42.366;23.818;2023-05-09T14:53:14;94416.75;;;9.99;100.00
40384;BME280;26097;42.366;23.818;2023-05-09T14:56:15;94422.69;;;10.01;100.00
40384;BME280;26097;42.366;23.818;2023-05-09T14:59:16;94408.31;;;10.08;100.00
40384;BME280;26097;42.366;23.818;2023-05-09T15:02:16;94417.31;;;10.04;100.00
40384;BME280;26097;42.366;23.818;2023-05-09T15:05:17;94416.66;;;10.00;100.00
40384;BME280;26097;42.366;23.818;2023-05-09T15:08:17;94411.88;;;10.07;100.00
40384;BME280;26097;42.366;23.818;2023-05-09T15:11:18;94407.72;;;9.92;100.00
40384;BME280;26097;42.366;23.818;2023-05-09T15:14:18;94410.09;;;9.95;100.00
40384;BME280;26097;42.366;23.818;2023-05-09T15:17:21;94411.25;;;9.91;100.00
40384;BME280;26097;42.366;23.818;2023-05-09T15:20:22;94411.47;;;9.88;100.00
40384;BME280;26097;42.366;23.818;2023-05-09T15:23:22;94410.19;;;9.80;100.00
40384;BME280;26097;42.366;23.818;2023-05-09T15:26:23;94409.16;;;9.70;100.00
40384;BME280;26097;42.366;23.818;2023-05-09T15:29:23;94404.91;;;9.69;100.00
40384;BME280;26097;42.366;23.818;2023-05-09T15:32:23;94400.22;;;9.61;100.00
40384;BME280;26097;42.366;23.818;2023-05-09T15:35:24;94404.78;;;9.57;100.00
40384;BME280;26097;42.366;23.818;2023-05-09T15:38:25;94409.97;;;9.57;100.00
40384;BME280;26097;42.366;23.818;2023-05-09T15:41:26;94404.56;;;9.61;100.00
40384;BME280;26097;42.366;23.818;2023-05-09T15:44:26;94402.47;;;9.53;100.00
40384;BME280;26097;42.366;23.818;2023-05-09T15:47:27;94406.63;;;9.42;100.00
40384;BME280;26097;42.366;23.818;2023-05-09T15:50:27;94407.66;;;9.40;100.00
40384;BME280;26097;42.366;23.818;2023-05-09T15:53:28;94410.38;;;9.38;100.00
40384;BME280;26097;42.366;23.818;2023-05-09T15:56:28;94400.56;;;9.29;100.00
40384;BME280;26097;42.366;23.818;2023-05-09T15:59:29;94406.09;;;9.24;100.00
40384;BME280;26097;42.366;23.818;2023-05-09T16:02:29;94412.81;;;9.14;100.00
40384;BME280;26097;42.366;23.818;2023-05-09T16:05:29;94415.84;;;9.21;100.00